Northdale, Florida
Current Conditions -  °F | °C
As of 3:53 AM on Wednesday 28 Jan 2015 (Local Time) from KTPA Reporting Station
Clear Clear  
Wind Chill: 50°   Ceiling: Unl
Heat Index: 50°   Visibility: 10mi
Dew Point: 42°   Wind: 6mph
Humidity: 74%   Direction: 360°N
Pressure: 30.11"   Gusts: NA
Location:  28.0595°N, 82.6106°W
Report Text: KTPA 280853Z 36005KT 10SM CLR 10/06 A3011 RMK AO2 SLP195 T01000056 51005
Loading
Personal Weather Stations






























Interactive Weather Map New forecast layout! Learn more

10-Day Weather Forecast

Advertisements
Track Severe Weather on mobile